createdAt,value
2023-05-16T00:01:01.512Z,57.00
2023-05-16T00:04:27.549Z,57.00
2023-05-16T00:07:51.714Z,57.00
2023-05-16T00:11:15.500Z,57.20
2023-05-16T00:14:40.662Z,57.20
2023-05-16T00:18:04.415Z,57.30
2023-05-16T00:21:29.132Z,57.40
2023-05-16T00:24:53.004Z,57.40
2023-05-16T00:31:42.570Z,57.80
2023-05-16T00:35:10.457Z,57.80
2023-05-16T00:38:34.163Z,58.00
2023-05-16T00:41:58.047Z,57.90
2023-05-16T00:48:47.180Z,58.00
2023-05-16T00:52:11.590Z,58.10
2023-05-16T01:02:28.396Z,58.40
2023-05-16T01:05:53.765Z,58.50
2023-05-16T01:12:54.424Z,58.70
2023-05-16T01:16:28.909Z,58.60
2023-05-16T01:20:08.199Z,58.50
2023-05-16T01:23:52.505Z,58.60
2023-05-16T01:27:18.931Z,58.40
2023-05-16T01:30:43.135Z,58.60
2023-05-16T01:34:06.703Z,58.50
2023-05-16T01:37:40.679Z,58.60
2023-05-16T01:41:12.688Z,58.70
2023-05-16T01:44:44.398Z,59.10
2023-05-16T01:48:14.368Z,59.10
2023-05-16T01:51:42.611Z,62.80
2023-05-16T01:55:12.265Z,59.00
2023-05-16T01:58:38.408Z,59.20
2023-05-16T02:02:03.990Z,61.80
2023-05-16T02:05:28.059Z,59.40
2023-05-16T02:15:40.012Z,59.80
2023-05-16T02:19:04.994Z,60.10
2023-05-16T02:22:28.608Z,60.50
2023-05-16T02:32:41.199Z,60.70
2023-05-16T02:36:06.857Z,60.90
2023-05-16T02:46:26.458Z,60.70
2023-05-16T02:53:17.052Z,60.90
2023-05-16T03:00:06.146Z,60.70
2023-05-16T03:03:31.027Z,60.70
2023-05-16T03:06:54.891Z,60.80
2023-05-16T03:10:19.799Z,60.70
2023-05-16T03:20:31.327Z,60.80
2023-05-16T03:23:55.072Z,61.10
2023-05-16T03:27:20.051Z,61.00
2023-05-16T03:44:20.729Z,61.40
2023-05-16T04:01:21.535Z,61.90
2023-05-16T04:14:57.798Z,62.60
2023-05-16T04:18:22.737Z,62.70
2023-05-16T04:21:46.373Z,62.60
2023-05-16T04:25:11.294Z,62.80
2023-05-16T04:31:58.810Z,63.00
2023-05-16T04:35:23.871Z,63.20
2023-05-16T04:38:47.630Z,63.80
2023-05-16T04:42:11.435Z,63.80
2023-05-16T04:45:37.407Z,64.10
2023-05-16T04:49:01.303Z,64.40
2023-05-16T04:52:26.638Z,64.20
2023-05-16T04:55:50.354Z,64.10
2023-05-16T04:59:14.759Z,64.30
2023-05-16T05:02:38.983Z,64.40
2023-05-16T05:06:02.601Z,64.50
2023-05-16T05:09:27.519Z,64.40
2023-05-16T05:12:51.111Z,64.60
2023-05-16T05:16:14.696Z,64.30
2023-05-16T05:19:38.307Z,64.20
2023-05-16T05:23:02.320Z,64.10
2023-05-16T05:26:28.985Z,64.90
2023-05-16T05:29:52.549Z,64.40
2023-05-16T05:33:19.197Z,64.40
2023-05-16T05:36:43.059Z,64.70
2023-05-16T05:40:08.824Z,64.50
2023-05-16T05:43:34.042Z,64.50
2023-05-16T05:46:58.172Z,64.60
2023-05-16T05:50:21.880Z,64.60
2023-05-16T05:53:45.754Z,64.80
2023-05-16T05:57:09.374Z,64.50
2023-05-16T06:00:34.776Z,64.60
2023-05-16T06:03:59.695Z,64.60
2023-05-16T06:07:25.045Z,64.50
2023-05-16T06:10:49.139Z,64.60
2023-05-16T06:14:12.977Z,64.70
2023-05-16T06:17:38.652Z,64.70
2023-05-16T06:21:02.376Z,64.70
2023-05-16T06:24:26.063Z,64.80
2023-05-16T06:27:49.969Z,65.00
2023-05-16T06:31:13.564Z,64.70
2023-05-16T06:34:38.396Z,64.50
2023-05-16T06:38:01.994Z,64.20
2023-05-16T06:41:27.401Z,64.10
2023-05-16T06:44:51.267Z,64.10
2023-05-16T06:48:16.110Z,64.10
2023-05-16T06:51:41.486Z,64.30
2023-05-16T06:55:05.847Z,64.10
2023-05-16T06:58:29.533Z,64.00
2023-05-16T07:01:53.201Z,63.40
2023-05-16T07:05:17.132Z,63.50
2023-05-16T07:08:42.036Z,63.60
2023-05-16T07:12:06.752Z,63.50
2023-05-16T07:15:30.522Z,63.80
2023-05-16T07:18:54.387Z,63.80
2023-05-16T07:22:18.025Z,62.00
2023-05-16T07:25:42.997Z,63.70
2023-05-16T07:29:06.574Z,63.50
2023-05-16T07:32:30.610Z,63.30
2023-05-16T07:36:07.835Z,63.40
2023-05-16T07:39:38.563Z,63.50
2023-05-16T07:43:03.695Z,63.20
2023-05-16T07:46:27.310Z,63.20
2023-05-16T07:49:50.982Z,63.30
2023-05-16T07:53:14.592Z,63.50
2023-05-16T07:56:38.285Z,63.50
2023-05-16T08:00:05.131Z,63.50
2023-05-16T08:03:37.565Z,63.60
2023-05-16T08:07:01.616Z,64.20
2023-05-16T08:10:25.700Z,64.10
2023-05-16T08:13:49.515Z,63.90
2023-05-16T08:17:14.817Z,63.90
2023-05-16T08:20:38.464Z,63.70
2023-05-16T08:24:02.139Z,63.60
2023-05-16T08:27:26.477Z,63.60
2023-05-16T08:30:50.177Z,63.50
2023-05-16T08:34:15.121Z,63.50
2023-05-16T08:37:39.008Z,63.70
2023-05-16T08:41:02.737Z,62.60
2023-05-16T08:44:26.556Z,63.20
2023-05-16T08:47:55.433Z,62.30
2023-05-16T08:51:22.507Z,62.70
2023-05-16T08:54:55.312Z,63.00
2023-05-16T08:58:30.730Z,63.00
2023-05-16T09:01:54.447Z,63.00
2023-05-16T09:05:19.592Z,62.80
2023-05-16T09:08:44.833Z,62.60
2023-05-16T09:12:09.770Z,62.40
2023-05-16T09:15:35.197Z,62.00
2023-05-16T09:19:02.581Z,62.30
2023-05-16T09:22:26.202Z,62.50
2023-05-16T09:25:55.002Z,62.50
2023-05-16T09:29:19.654Z,62.60
2023-05-16T09:32:46.003Z,63.70
2023-05-16T09:36:10.494Z,63.00
2023-05-16T09:39:34.027Z,62.90
2023-05-16T09:43:06.992Z,62.90
2023-05-16T09:46:31.506Z,63.10
2023-05-16T09:49:55.964Z,63.10
2023-05-16T09:53:26.327Z,63.50
2023-05-16T09:56:51.561Z,64.70
2023-05-16T10:00:19.284Z,66.20
2023-05-16T10:03:44.411Z,66.00
2023-05-16T10:07:09.834Z,65.30
2023-05-16T10:10:38.634Z,64.20
2023-05-16T10:14:02.867Z,63.50
2023-05-16T10:17:32.440Z,63.00
2023-05-16T10:21:00.691Z,62.60
2023-05-16T10:24:32.617Z,62.70
2023-05-16T10:27:56.721Z,62.90
2023-05-16T10:31:23.509Z,63.00
2023-05-16T10:34:49.018Z,63.70
2023-05-16T10:38:17.629Z,63.60
2023-05-16T10:41:41.780Z,64.10
2023-05-16T10:45:18.286Z,64.40
2023-05-16T10:48:43.406Z,63.60
2023-05-16T10:52:11.007Z,63.10
2023-05-16T10:55:34.557Z,62.20
2023-05-16T10:58:58.093Z,61.60
2023-05-16T11:02:28.615Z,61.40
2023-05-16T11:05:55.316Z,61.10
2023-05-16T11:09:28.417Z,61.00
2023-05-16T11:12:55.075Z,60.80
2023-05-16T11:16:31.672Z,60.60
2023-05-16T11:19:59.644Z,60.40
2023-05-16T11:23:26.235Z,60.40
2023-05-16T11:26:51.517Z,60.40
2023-05-16T11:30:19.285Z,60.20
2023-05-16T11:33:43.910Z,60.30
2023-05-16T11:37:07.766Z,60.60
2023-05-16T11:40:31.643Z,60.70
2023-05-16T11:43:59.308Z,60.70
2023-05-16T11:47:23.027Z,60.70
2023-05-16T11:50:47.375Z,60.70
2023-05-16T11:54:13.032Z,61.00
2023-05-16T11:57:36.708Z,61.20
2023-05-16T12:01:05.385Z,61.60
2023-05-16T12:04:29.754Z,61.70
2023-05-16T12:07:55.104Z,61.80
2023-05-16T12:11:19.371Z,61.90
2023-05-16T12:14:43.119Z,62.10
2023-05-16T12:18:08.799Z,62.10
2023-05-16T12:21:33.248Z,62.10
2023-05-16T12:24:56.840Z,62.10
2023-05-16T12:28:20.406Z,62.10
2023-05-16T12:31:44.130Z,62.20
2023-05-16T12:35:13.009Z,62.50
2023-05-16T12:38:36.662Z,62.50
2023-05-16T12:42:07.372Z,62.30
2023-05-16T12:45:31.914Z,62.40
2023-05-16T12:49:05.025Z,62.30
2023-05-16T12:52:30.801Z,62.40
2023-05-16T12:55:54.458Z,62.10
2023-05-16T12:59:19.582Z,62.30
2023-05-16T13:02:43.897Z,63.00
2023-05-16T13:06:08.746Z,62.60
2023-05-16T13:09:33.656Z,62.40
2023-05-16T13:12:58.787Z,62.20
2023-05-16T13:16:22.368Z,61.90
2023-05-16T13:19:48.258Z,61.70
2023-05-16T13:23:12.572Z,61.70
2023-05-16T13:26:37.451Z,61.50
2023-05-16T13:30:01.279Z,61.20
2023-05-16T13:33:25.565Z,61.20
2023-05-16T13:36:54.550Z,61.00
2023-05-16T13:40:18.472Z,61.50
2023-05-16T13:43:43.386Z,61.20
2023-05-16T13:47:07.000Z,61.40
2023-05-16T13:50:33.805Z,61.60
2023-05-16T13:53:57.639Z,61.90
2023-05-16T13:57:23.041Z,61.80
2023-05-16T14:00:49.491Z,61.80
2023-05-16T14:04:13.369Z,61.90
2023-05-16T14:07:36.967Z,61.40
2023-05-16T14:11:00.502Z,61.30
2023-05-16T14:14:24.118Z,61.10
2023-05-16T14:17:49.012Z,61.00
2023-05-16T14:21:12.926Z,61.10
2023-05-16T14:24:36.531Z,61.50
2023-05-16T14:28:00.197Z,61.30
2023-05-16T14:31:23.710Z,61.30
2023-05-16T14:34:48.556Z,61.30
2023-05-16T14:38:12.051Z,61.20
2023-05-16T14:41:35.706Z,61.20
2023-05-16T14:44:59.346Z,61.00
2023-05-16T14:48:22.997Z,61.20
2023-05-16T14:51:50.743Z,60.90
2023-05-16T14:55:14.347Z,61.00
2023-05-16T14:58:38.091Z,61.30
2023-05-16T15:02:01.707Z,61.20
2023-05-16T15:05:26.361Z,61.20
2023-05-16T15:08:51.443Z,61.20
2023-05-16T15:12:15.803Z,61.00
2023-05-16T15:15:39.539Z,60.70
2023-05-16T15:19:03.264Z,60.80
2023-05-16T15:22:28.729Z,60.70
2023-05-16T15:25:55.032Z,60.50
2023-05-16T15:29:20.080Z,60.10
2023-05-16T15:32:44.670Z,60.00
2023-05-16T15:36:09.180Z,60.80
2023-05-16T15:39:32.802Z,59.90
2023-05-16T15:42:57.844Z,59.70
2023-05-16T15:46:21.478Z,59.90
2023-05-16T15:49:45.251Z,59.90
2023-05-16T15:53:08.933Z,60.00
2023-05-16T15:56:33.394Z,59.10
2023-05-16T15:59:58.748Z,58.90
2023-05-16T16:03:22.765Z,58.30
2023-05-16T16:06:46.875Z,58.50
2023-05-16T16:10:12.287Z,58.40
2023-05-16T16:13:36.011Z,57.70
2023-05-16T16:17:01.011Z,57.60
2023-05-16T16:20:25.028Z,57.70
2023-05-16T16:23:48.623Z,58.00
2023-05-16T16:27:12.605Z,57.90
2023-05-16T16:30:36.246Z,58.10
2023-05-16T16:34:01.238Z,58.20
2023-05-16T16:37:24.951Z,58.00
2023-05-16T16:40:48.566Z,58.10
2023-05-16T16:44:12.242Z,58.00
2023-05-16T16:47:37.316Z,58.20
2023-05-16T16:51:02.516Z,58.20
2023-05-16T16:54:28.020Z,58.10
2023-05-16T16:57:51.698Z,58.10
2023-05-16T17:01:15.415Z,58.00
2023-05-16T17:04:39.080Z,57.90
2023-05-16T17:08:04.471Z,57.80
2023-05-16T17:11:29.621Z,57.80
2023-05-16T17:14:53.574Z,57.60
2023-05-16T17:18:17.342Z,57.50
2023-05-16T17:21:41.461Z,57.30
2023-05-16T17:25:07.925Z,57.30
2023-05-16T17:28:32.519Z,57.20
2023-05-16T17:31:56.299Z,57.10
2023-05-16T17:35:20.586Z,57.00
2023-05-16T17:38:44.451Z,57.20
2023-05-16T17:42:10.826Z,57.10
2023-05-16T17:45:34.687Z,57.00
2023-05-16T17:48:58.378Z,57.10
2023-05-16T17:52:23.096Z,56.90
2023-05-16T17:55:47.872Z,56.80
2023-05-16T17:59:15.027Z,56.60
2023-05-16T18:02:39.385Z,56.50
2023-05-16T18:06:03.134Z,56.40
2023-05-16T18:09:26.977Z,56.40
2023-05-16T18:12:50.874Z,56.80
2023-05-16T18:16:15.906Z,56.00
2023-05-16T18:19:39.660Z,55.80
2023-05-16T18:23:03.495Z,55.80
2023-05-16T18:26:29.170Z,55.70
2023-05-16T18:29:52.822Z,55.70
2023-05-16T18:33:18.100Z,55.60
2023-05-16T18:36:41.780Z,55.60
2023-05-16T18:40:06.561Z,55.50
2023-05-16T18:43:31.020Z,55.50
2023-05-16T18:46:54.936Z,55.30
2023-05-16T18:50:20.356Z,55.00
2023-05-16T18:53:44.136Z,54.80
2023-05-16T18:57:08.566Z,54.70
2023-05-16T19:00:32.280Z,54.60
2023-05-16T19:03:56.307Z,54.40
2023-05-16T19:07:21.752Z,54.20
2023-05-16T19:10:45.844Z,54.10
2023-05-16T19:14:09.510Z,54.20
2023-05-16T19:17:33.617Z,54.20
2023-05-16T19:20:57.312Z,54.00
2023-05-16T19:24:22.503Z,54.10
2023-05-16T19:27:46.495Z,53.90
2023-05-16T19:31:11.576Z,53.90
2023-05-16T19:34:35.384Z,54.00
2023-05-16T19:37:59.254Z,53.90
2023-05-16T19:41:24.648Z,53.80
2023-05-16T19:44:48.306Z,53.70
2023-05-16T19:48:12.410Z,53.60
2023-05-16T19:51:41.819Z,53.50
2023-05-16T19:55:09.461Z,53.40
2023-05-16T19:58:34.494Z,53.00
2023-05-16T20:01:58.271Z,52.90
2023-05-16T20:05:23.413Z,53.20
2023-05-16T20:08:47.250Z,53.10
2023-05-16T20:12:12.857Z,53.00
2023-05-16T20:15:37.941Z,53.00
2023-05-16T20:19:04.967Z,53.00
2023-05-16T20:22:28.768Z,53.00
2023-05-16T20:25:52.851Z,53.20
2023-05-16T20:29:16.854Z,53.10
2023-05-16T20:32:42.266Z,53.10
2023-05-16T20:36:06.536Z,53.00
2023-05-16T20:39:30.793Z,53.20
2023-05-16T20:42:54.861Z,53.20
2023-05-16T20:46:18.642Z,53.30
2023-05-16T20:49:44.070Z,53.30
2023-05-16T20:53:08.121Z,53.10
2023-05-16T20:56:32.143Z,53.00
2023-05-16T20:59:56.189Z,53.00
2023-05-16T21:03:20.240Z,53.20
2023-05-16T21:06:45.661Z,53.00
2023-05-16T21:10:11.015Z,52.90
2023-05-16T21:13:34.949Z,53.10
2023-05-16T21:16:58.823Z,53.10
2023-05-16T21:20:23.047Z,53.10
2023-05-16T21:23:48.390Z,52.90
2023-05-16T21:27:12.689Z,52.80
2023-05-16T21:30:36.321Z,52.80
2023-05-16T21:33:59.997Z,52.90
2023-05-16T21:37:23.637Z,52.80
2023-05-16T21:40:48.796Z,53.00
2023-05-16T21:44:16.928Z,52.80
2023-05-16T21:47:40.584Z,52.80
2023-05-16T21:51:05.176Z,52.60
2023-05-16T21:54:28.614Z,52.60
2023-05-16T21:57:53.550Z,52.60
2023-05-16T22:01:17.324Z,52.40
2023-05-16T22:04:40.940Z,52.20
2023-05-16T22:08:04.827Z,52.20
2023-05-16T22:11:28.535Z,52.10
2023-05-16T22:14:53.726Z,52.20
2023-05-16T22:18:17.389Z,52.20
2023-05-16T22:21:41.014Z,52.20
2023-05-16T22:25:05.156Z,52.30
2023-05-16T22:28:28.719Z,52.20
2023-05-16T22:31:53.723Z,52.00
2023-05-16T22:35:17.324Z,52.10
2023-05-16T22:38:40.806Z,52.00
2023-05-16T22:42:04.966Z,52.00
2023-05-16T22:45:28.763Z,52.10
2023-05-16T22:48:53.732Z,52.00
2023-05-16T22:52:17.208Z,51.90
2023-05-16T22:55:40.658Z,51.70
2023-05-16T22:59:04.295Z,51.80
2023-05-16T23:02:28.113Z,51.90
2023-05-16T23:05:53.279Z,52.00
2023-05-16T23:09:16.944Z,52.30
2023-05-16T23:12:40.620Z,52.30
2023-05-16T23:16:04.335Z,52.20
2023-05-16T23:19:28.026Z,52.00
2023-05-16T23:22:53.185Z,52.00
2023-05-16T23:26:17.280Z,51.90
2023-05-16T23:29:40.905Z,51.70
2023-05-16T23:33:04.678Z,51.90
2023-05-16T23:36:28.431Z,52.20
2023-05-16T23:39:53.510Z,52.20
2023-05-16T23:43:17.177Z,52.30
2023-05-16T23:46:40.882Z,52.30
2023-05-16T23:50:05.863Z,52.30
2023-05-16T23:53:31.998Z,52.40
2023-05-16T23:56:57.003Z,52.30
